Terminal Aerodrome Forecast
Issued by NWS Amarillo, TX

Home | Current Version | Previous Version | Text Only | Print | Product List | Glossary On
Versions: 1 2 3 4 5 6 7 8 9 10 11 12 13 14 15 16 17 18 19 20 21 22 23 24
000
FTUS44 KAMA 030500
TAFGUY
TAF
KGUY 030520Z 0306/0406 VRB06KT P6SM SCT030 SCT120 BKN300
     FM030900 VRB06KT P6SM SCT010 SCT120 BKN300
     FM031600 13010KT P6SM SCT035 BKN300
     FM032000 14011KT P6SM SCT040 BKN300=

USA.gov is the U.S. government's official web portal to all federal, state and local government web resources and services.